Time;durP1;ratioP1;P1;durP2;ratioP2;P2;SDS_P1;SDS_P2;PMS_P1;PMS_P2;Temp;Humidity;BMP_temperature;BMP_pressure;BME280_temperature;BME280_humidity;BME280_pressure;Samples;Min_cycle;Max_cycle;Signal;HPM_P1;HPM_P2
2022/10/02 00:01:12;;;;;;;0.50;0.50;;;17.00;61.00;;;;;;5068043;28;45210;-76
2022/10/02 00:03:42;;;;;;;0.30;0.30;;;16.90;61.00;;;;;;5068385;28;45292;-76
2022/10/02 00:06:12;;;;;;;0.47;0.40;;;16.90;61.00;;;;;;5067844;28;46492;-76
2022/10/02 00:08:40;;;;;;;0.45;0.25;;;16.90;61.00;;;;;;5067764;28;45315;-75
2022/10/02 00:11:08;;;;;;;0.47;0.47;;;17.00;61.00;;;;;;5071585;28;45332;-76
2022/10/02 00:13:37;;;;;;;0.30;0.30;;;16.90;61.00;;;;;;5088391;28;45542;-76
2022/10/02 00:16:05;;;;;;;0.63;0.40;;;16.90;61.00;;;;;;5088003;28;46350;-76
2022/10/02 00:18:34;;;;;;;0.40;0.38;;;17.00;61.10;;;;;;5085378;28;45252;-75
2022/10/02 00:21:04;;;;;;;0.32;0.32;;;17.00;61.10;;;;;;5085654;28;45289;-75
2022/10/02 00:23:32;;;;;;;0.43;0.43;;;16.90;61.00;;;;;;5088199;28;45529;-76
2022/10/02 00:26:01;;;;;;;0.30;0.30;;;17.00;61.00;;;;;;5087770;28;46407;-76
2022/10/02 00:28:29;;;;;;;0.75;0.40;;;17.00;61.10;;;;;;5087879;28;45291;-76
2022/10/02 00:31:07;;;;;;;0.22;0.22;;;16.90;61.00;;;;;;5088054;28;45289;-76
2022/10/02 00:33:39;;;;;;;0.40;0.40;;;16.90;61.00;;;;;;5071653;28;45297;-76
2022/10/02 00:36:16;;;;;;;0.80;0.55;;;17.00;61.10;;;;;;5076830;28;46409;-76
2022/10/02 00:38:47;;;;;;;0.50;0.50;;;17.00;61.20;;;;;;5087785;28;45331;-75
2022/10/02 00:41:48;;;;;;;0.40;0.40;;;17.00;61.10;;;;;;5087801;28;45388;-76
2022/10/02 00:44:21;;;;;;;0.43;0.40;;;17.00;61.20;;;;;;5069991;28;45407;-75
2022/10/02 00:46:50;;;;;;;0.57;0.40;;;17.00;61.20;;;;;;5087545;28;46382;-75
2022/10/02 00:49:42;;;;;;;0.30;0.30;;;17.00;61.20;;;;;;5087572;28;45270;-75
2022/10/02 00:52:17;;;;;;;0.50;0.32;;;17.00;61.20;;;;;;5086972;28;45340;-75
2022/10/02 00:55:16;;;;;;;1.85;0.40;;;17.00;61.20;;;;;;5087639;28;45326;-75
2022/10/02 00:57:51;;;;;;;0.40;0.28;;;17.00;61.90;;;;;;5039161;28;45428;-76
2022/10/02 01:00:18;;;;;;;0.68;0.40;;;17.00;61.20;;;;;;5087418;28;45301;-75
2022/10/02 01:02:59;;;;;;;0.32;0.32;;;17.00;61.20;;;;;;5087465;28;45395;-75
2022/10/02 01:05:26;;;;;;;0.45;0.38;;;17.00;61.90;;;;;;5087618;28;45589;-75
2022/10/02 01:07:55;;;;;;;0.40;0.40;;;17.00;61.20;;;;;;5087209;28;46664;-76
2022/10/02 01:10:22;;;;;;;0.45;0.40;;;17.00;61.20;;;;;;5082238;28;45555;-76
2022/10/02 01:12:49;;;;;;;0.40;0.40;;;17.00;61.20;;;;;;5066697;28;45332;-76
2022/10/02 01:15:17;;;;;;;0.65;0.40;;;17.00;61.20;;;;;;5067088;28;45180;-75
2022/10/02 01:17:44;;;;;;;0.35;0.35;;;17.00;61.20;;;;;;5066772;28;46930;-76
2022/10/02 01:20:14;;;;;;;0.73;0.40;;;17.00;61.20;;;;;;5066650;28;45301;-76
2022/10/02 01:22:43;;;;;;;0.40;0.40;;;17.00;61.20;;;;;;5066791;28;45154;-75
2022/10/02 01:25:11;;;;;;;0.40;0.40;;;17.00;61.20;;;;;;5066946;28;45181;-76
2022/10/02 01:27:38;;;;;;;1.55;0.57;;;17.00;61.20;;;;;;5066558;28;46650;-75
2022/10/02 01:30:06;;;;;;;0.30;0.30;;;17.00;61.20;;;;;;5066178;28;45233;-75
2022/10/02 01:32:33;;;;;;;0.60;0.60;;;17.00;61.30;;;;;;5066562;28;45185;-75
2022/10/02 01:35:01;;;;;;;0.30;0.30;;;17.00;61.30;;;;;;5066551;28;45622;-75
2022/10/02 01:37:29;;;;;;;0.50;0.45;;;17.00;61.20;;;;;;5066442;28;46865;-76
2022/10/02 01:39:56;;;;;;;0.50;0.50;;;17.00;61.30;;;;;;5066470;28;45247;-76
2022/10/02 01:42:25;;;;;;;0.50;0.50;;;17.00;61.20;;;;;;5066455;28;45145;-76
2022/10/02 01:44:51;;;;;;;0.50;0.50;;;17.00;61.30;;;;;;5066642;28;45299;-76
2022/10/02 01:47:20;;;;;;;0.43;0.43;;;17.00;61.20;;;;;;5066550;28;46657;-75
2022/10/02 01:49:56;;;;;;;1.05;0.65;;;17.00;61.20;;;;;;5066638;28;45211;-75
2022/10/02 01:52:35;;;;;;;0.32;0.30;;;17.00;61.20;;;;;;5066702;28;45267;-76
2022/10/02 01:55:14;;;;;;;0.45;0.45;;;17.00;61.20;;;;;;5067239;28;45415;-75
2022/10/02 01:57:55;;;;;;;0.63;0.40;;;17.00;61.20;;;;;;5066620;28;46381;-75
2022/10/02 02:00:24;;;;;;;0.50;0.50;;;17.00;61.20;;;;;;5066431;28;45291;-76
2022/10/02 02:02:58;;;;;;;0.30;0.30;;;17.00;61.20;;;;;;5066806;28;45234;-76
2022/10/02 02:05:31;;;;;;;0.30;0.30;;;17.00;61.20;;;;;;5066687;28;45317;-75
2022/10/02 02:08:01;;;;;;;1.15;0.65;;;17.00;61.20;;;;;;5066237;28;46696;-75
2022/10/02 02:10:32;;;;;;;0.75;0.50;;;17.00;61.20;;;;;;5066254;28;45202;-75
2022/10/02 02:13:01;;;;;;;1.02;0.70;;;17.00;61.20;;;;;;5066421;28;45302;-75
2022/10/02 02:15:30;;;;;;;0.65;0.50;;;17.10;61.30;;;;;;5067279;28;45212;-75
2022/10/02 02:17:58;;;;;;;0.40;0.40;;;17.10;61.30;;;;;;5072942;28;46644;-75
2022/10/02 02:20:27;;;;;;;0.40;0.40;;;17.10;61.30;;;;;;5072813;28;45233;-75
2022/10/02 02:22:55;;;;;;;0.40;0.40;;;17.00;61.20;;;;;;5072860;28;45267;-75
2022/10/02 02:25:24;;;;;;;0.40;0.40;;;17.10;61.30;;;;;;5073106;28;45296;-76
2022/10/02 02:27:52;;;;;;;0.65;0.50;;;17.00;61.20;;;;;;5072567;28;46653;-75
2022/10/02 02:30:20;;;;;;;0.43;0.40;;;17.10;61.40;;;;;;5070415;28;45288;-75
2022/10/02 02:32:49;;;;;;;0.60;0.57;;;17.10;61.40;;;;;;5072820;28;45317;-75
2022/10/02 02:35:17;;;;;;;0.38;0.38;;;17.10;61.40;;;;;;5072965;28;45251;-75
2022/10/02 02:37:45;;;;;;;0.35;0.35;;;17.10;61.30;;;;;;5072557;28;45449;-75
2022/10/02 02:40:13;;;;;;;0.55;0.55;;;17.10;61.40;;;;;;5072099;28;45307;-75
2022/10/02 02:42:41;;;;;;;0.50;0.50;;;17.10;61.40;;;;;;5073113;28;45297;-76
2022/10/02 02:45:10;;;;;;;0.57;0.57;;;17.10;61.30;;;;;;5073067;28;45316;-76
2022/10/02 02:47:41;;;;;;;0.40;0.40;;;17.10;61.20;;;;;;5070005;28;46655;-76
2022/10/02 02:50:10;;;;;;;0.40;0.40;;;17.10;61.40;;;;;;5072704;28;45704;-76
2022/10/02 02:52:39;;;;;;;0.45;0.45;;;17.10;61.30;;;;;;5072816;28;45353;-76
2022/10/02 02:55:07;;;;;;;2.63;0.47;;;17.10;61.40;;;;;;5072830;28;45268;-76
2022/10/02 02:57:37;;;;;;;0.47;0.47;;;17.10;61.40;;;;;;5072349;28;46373;-76
2022/10/02 03:00:05;;;;;;;1.15;0.40;;;17.10;61.30;;;;;;5072456;28;45262;-76
2022/10/02 03:02:32;;;;;;;0.40;0.40;;;17.10;61.20;;;;;;5072529;28;45170;-76
2022/10/02 03:05:00;;;;;;;0.40;0.40;;;17.10;61.40;;;;;;5072676;28;45135;-76
2022/10/02 03:07:27;;;;;;;0.32;0.32;;;17.10;61.30;;;;;;5072261;28;47345;-75
2022/10/02 03:10:00;;;;;;;0.63;0.50;;;17.10;61.30;;;;;;5072293;28;45377;-77
2022/10/02 03:12:33;;;;;;;0.40;0.38;;;17.10;61.30;;;;;;5072182;28;45218;-76
2022/10/02 03:15:14;;;;;;;0.85;0.50;;;17.10;61.30;;;;;;5072578;28;45606;-76
2022/10/02 03:17:49;;;;;;;0.40;0.40;;;17.10;61.20;;;;;;5072250;28;45439;-75
2022/10/02 03:20:20;;;;;;;0.60;0.60;;;17.10;61.20;;;;;;5072286;28;45339;-75
2022/10/02 03:22:51;;;;;;;0.30;0.30;;;17.10;61.30;;;;;;5072333;28;45378;-75
2022/10/02 03:25:20;;;;;;;0.57;0.57;;;17.10;61.30;;;;;;5072319;28;45212;-77
2022/10/02 03:27:51;;;;;;;0.50;0.40;;;17.10;61.30;;;;;;5069299;28;45433;-75
2022/10/02 03:30:19;;;;;;;0.55;0.55;;;17.10;61.20;;;;;;5068833;28;45244;-75
2022/10/02 03:32:46;;;;;;;0.47;0.47;;;17.10;61.30;;;;;;5069195;28;45479;-75
2022/10/02 03:35:13;;;;;;;0.20;0.20;;;17.10;61.40;;;;;;5069074;28;45309;-75
2022/10/02 03:37:42;;;;;;;0.30;0.30;;;17.10;61.40;;;;;;5068481;28;46656;-75
2022/10/02 03:40:09;;;;;;;0.85;0.45;;;17.10;61.40;;;;;;5068888;28;45226;-75
2022/10/02 03:42:36;;;;;;;0.47;0.38;;;17.10;61.40;;;;;;5068069;28;45295;-75
2022/10/02 03:45:03;;;;;;;1.48;0.40;;;17.20;62.20;;;;;;5068980;28;45331;-76
2022/10/02 03:47:30;;;;;;;0.30;0.30;;;17.10;61.40;;;;;;5068559;28;45427;-76
2022/10/02 03:49:57;;;;;;;0.57;0.45;;;17.20;61.50;;;;;;5068416;28;45196;-76
2022/10/02 03:52:24;;;;;;;0.60;0.60;;;17.10;61.40;;;;;;5068614;28;45360;-75
2022/10/02 03:54:55;;;;;;;0.45;0.40;;;17.10;61.50;;;;;;5068862;28;45266;-75
2022/10/02 03:57:23;;;;;;;0.45;0.43;;;17.10;61.40;;;;;;5065658;28;45603;-75
2022/10/02 03:59:53;;;;;;;0.40;0.40;;;17.10;61.40;;;;;;5068408;28;45256;-75
2022/10/02 04:02:26;;;;;;;0.57;0.40;;;17.20;61.50;;;;;;5068304;28;45285;-76
2022/10/02 04:04:56;;;;;;;0.30;0.30;;;17.20;61.40;;;;;;5068478;28;45500;-75
2022/10/02 04:07:24;;;;;;;0.40;0.40;;;17.10;61.40;;;;;;5068058;28;46653;-75
2022/10/02 04:10:06;;;;;;;0.55;0.55;;;17.10;61.50;;;;;;5068352;28;45410;-76
2022/10/02 04:12:34;;;;;;;0.40;0.40;;;17.10;61.50;;;;;;5067865;28;45469;-76
2022/10/02 04:15:03;;;;;;;0.40;0.40;;;17.10;61.40;;;;;;5068884;28;45433;-75
2022/10/02 04:17:32;;;;;;;0.60;0.47;;;17.10;61.50;;;;;;5068165;28;45243;-75
2022/10/02 04:20:00;;;;;;;0.43;0.40;;;17.20;61.50;;;;;;5068392;28;45216;-75
2022/10/02 04:22:32;;;;;;;0.43;0.40;;;17.20;61.50;;;;;;5068195;28;45369;-76
2022/10/02 04:25:03;;;;;;;0.40;0.40;;;17.20;61.50;;;;;;5068290;28;45459;-75
2022/10/02 04:27:33;;;;;;;0.40;0.40;;;17.20;61.60;;;;;;5067429;28;45432;-76
2022/10/02 04:30:01;;;;;;;0.40;0.40;;;17.20;61.50;;;;;;5067930;28;45198;-76
2022/10/02 04:32:30;;;;;;;0.75;0.50;;;17.20;61.60;;;;;;5068121;28;45314;-76
2022/10/02 04:34:57;;;;;;;0.70;0.50;;;17.20;61.50;;;;;;5068001;28;45376;-75
2022/10/02 04:37:35;;;;;;;0.47;0.47;;;17.20;61.50;;;;;;5047757;28;46411;-75
2022/10/02 04:40:17;;;;;;;0.32;0.32;;;17.20;62.40;;;;;;5047086;28;45356;-76
2022/10/02 04:42:57;;;;;;;0.40;0.40;;;17.20;61.70;;;;;;5047613;28;45405;-77
2022/10/02 04:45:30;;;;;;;0.43;0.43;;;17.20;61.60;;;;;;5047749;28;45373;-75
2022/10/02 04:48:20;;;;;;;0.85;0.47;;;17.20;61.60;;;;;;5047215;28;46289;-75
2022/10/02 04:50:50;;;;;;;0.70;0.70;;;17.20;61.70;;;;;;5046830;28;45250;-75
2022/10/02 04:53:26;;;;;;;0.40;0.40;;;17.20;61.70;;;;;;5047390;28;45258;-75
2022/10/02 04:56:08;;;;;;;0.40;0.40;;;17.20;61.70;;;;;;5047522;28;45323;-76
2022/10/02 04:58:46;;;;;;;0.50;0.50;;;17.20;61.70;;;;;;5047172;28;46653;-75
2022/10/02 05:01:17;;;;;;;0.80;0.50;;;17.20;61.80;;;;;;5047200;28;45307;-76
2022/10/02 05:03:53;;;;;;;0.55;0.40;;;17.30;61.80;;;;;;5047206;28;45322;-75
2022/10/02 05:06:28;;;;;;;0.40;0.40;;;17.30;61.90;;;;;;5047715;28;45237;-75
2022/10/02 05:08:59;;;;;;;0.40;0.40;;;17.20;61.80;;;;;;5046903;28;45541;-75
2022/10/02 05:11:47;;;;;;;0.40;0.40;;;17.20;61.80;;;;;;5047046;28;45243;-75
2022/10/02 05:14:34;;;;;;;0.32;0.32;;;17.20;61.70;;;;;;5047234;28;45274;-75
2022/10/02 05:17:07;;;;;;;0.30;0.30;;;17.20;61.70;;;;;;5047385;28;45186;-76
2022/10/02 05:19:56;;;;;;;1.30;0.60;;;17.20;61.60;;;;;;5046735;28;45203;-76
2022/10/02 05:22:40;;;;;;;1.40;0.40;;;17.30;61.80;;;;;;5046638;28;45261;-76
2022/10/02 05:25:20;;;;;;;0.73;0.50;;;17.30;61.80;;;;;;5047176;28;45339;-75
2022/10/02 05:27:56;;;;;;;0.30;0.30;;;17.30;61.80;;;;;;5066164;28;45570;-75
2022/10/02 05:30:23;;;;;;;0.47;0.47;;;17.30;61.70;;;;;;5067050;28;45502;-75
2022/10/02 05:32:57;;;;;;;0.63;0.60;;;17.30;61.70;;;;;;5067042;28;45193;-75
2022/10/02 05:35:36;;;;;;;0.70;0.40;;;17.30;61.80;;;;;;5067198;28;45245;-75
2022/10/02 05:38:06;;;;;;;0.55;0.55;;;17.30;61.80;;;;;;5067166;28;45240;-75
2022/10/02 05:40:35;;;;;;;0.80;0.50;;;17.30;61.90;;;;;;5066582;28;46365;-75
2022/10/02 05:43:05;;;;;;;0.40;0.40;;;17.30;61.80;;;;;;5066783;28;45407;-75
2022/10/02 05:45:36;;;;;;;1.27;0.60;;;17.30;61.90;;;;;;5066881;28;45252;-75
2022/10/02 05:48:06;;;;;;;0.50;0.50;;;17.30;62.00;;;;;;5067165;28;45284;-75
2022/10/02 05:50:34;;;;;;;0.60;0.60;;;17.30;62.00;;;;;;5065600;28;46641;-75
2022/10/02 05:53:03;;;;;;;0.55;0.50;;;17.30;61.90;;;;;;5066567;28;45264;-76
2022/10/02 05:55:32;;;;;;;0.32;0.32;;;17.40;62.00;;;;;;5066831;28;45295;-76
2022/10/02 05:58:03;;;;;;;0.63;0.50;;;17.30;61.80;;;;;;5066830;28;45456;-75
2022/10/02 06:00:33;;;;;;;0.50;0.50;;;17.40;61.90;;;;;;5066575;28;45241;-75
2022/10/02 06:03:08;;;;;;;0.57;0.40;;;17.40;62.00;;;;;;5065740;28;45205;-75
2022/10/02 06:05:41;;;;;;;0.55;0.55;;;17.40;62.70;;;;;;5066045;28;45241;-75
2022/10/02 06:08:09;;;;;;;0.40;0.40;;;17.40;62.10;;;;;;5065882;28;45193;-76
2022/10/02 06:10:38;;;;;;;0.82;0.50;;;17.40;62.80;;;;;;5066368;28;47293;-76
2022/10/02 06:13:08;;;;;;;1.30;0.40;;;17.40;62.10;;;;;;5046076;28;45312;-75
2022/10/02 06:15:39;;;;;;;1.30;0.52;;;17.40;62.00;;;;;;5043637;28;45183;-76
2022/10/02 06:18:07;;;;;;;0.40;0.40;;;17.40;62.90;;;;;;5046319;28;45360;-76
2022/10/02 06:20:36;;;;;;;0.40;0.40;;;17.40;62.00;;;;;;5046235;28;46480;-76
2022/10/02 06:23:05;;;;;;;0.40;0.40;;;17.40;62.10;;;;;;5046054;28;45388;-76
2022/10/02 06:25:34;;;;;;;0.75;0.50;;;17.40;62.10;;;;;;5046189;28;45214;-76
2022/10/02 06:28:02;;;;;;;0.75;0.60;;;17.40;62.10;;;;;;5046477;28;45153;-76
2022/10/02 06:30:30;;;;;;;0.60;0.60;;;17.40;62.20;;;;;;5045893;28;46789;-76
2022/10/02 06:32:59;;;;;;;1.70;0.47;;;17.40;62.20;;;;;;5045931;28;45349;-76
2022/10/02 06:35:34;;;;;;;0.50;0.50;;;17.40;62.20;;;;;;5045975;28;45235;-75
2022/10/02 06:38:09;;;;;;;0.55;0.55;;;17.40;62.30;;;;;;5046164;28;45216;-76
2022/10/02 06:40:49;;;;;;;0.40;0.40;;;17.40;62.20;;;;;;5045853;28;46777;-76
2022/10/02 06:43:49;;;;;;;0.35;0.30;;;17.40;62.10;;;;;;5045936;28;45333;-75
2022/10/02 06:46:25;;;;;;;0.40;0.40;;;17.40;62.20;;;;;;5043478;28;45179;-75
2022/10/02 06:48:57;;;;;;;0.55;0.55;;;17.50;62.20;;;;;;5046175;28;45562;-75
2022/10/02 06:51:27;;;;;;;0.40;0.40;;;17.50;62.20;;;;;;5045407;28;46502;-76
2022/10/02 06:54:18;;;;;;;0.50;0.50;;;17.50;62.30;;;;;;5045660;28;45227;-75
2022/10/02 06:56:51;;;;;;;0.47;0.47;;;17.50;62.30;;;;;;5045763;28;45266;-76
2022/10/02 06:59:25;;;;;;;0.75;0.60;;;17.50;62.40;;;;;;5046031;28;45276;-76
2022/10/02 07:01:56;;;;;;;0.55;0.55;;;17.50;62.50;;;;;;5045868;28;46439;-75
2022/10/02 07:04:33;;;;;;;0.40;0.40;;;17.50;62.40;;;;;;5049135;28;45389;-75
2022/10/02 07:07:15;;;;;;;0.50;0.50;;;17.50;62.50;;;;;;5049541;28;45420;-76
2022/10/02 07:09:51;;;;;;;0.40;0.40;;;17.50;62.50;;;;;;5049599;28;45278;-75
2022/10/02 07:12:26;;;;;;;0.50;0.50;;;17.50;62.50;;;;;;5062434;28;46366;-76
2022/10/02 07:15:09;;;;;;;0.40;0.40;;;17.60;62.50;;;;;;5069303;28;45381;-75
2022/10/02 07:17:43;;;;;;;0.50;0.50;;;17.50;62.50;;;;;;5069357;28;45199;-76
2022/10/02 07:20:25;;;;;;;0.45;0.40;;;17.60;62.60;;;;;;5069434;28;45206;-75
2022/10/02 07:23:00;;;;;;;0.47;0.47;;;17.60;62.60;;;;;;5068657;28;45245;-75
2022/10/02 07:25:44;;;;;;;0.40;0.40;;;17.60;62.60;;;;;;5069364;28;45290;-76
2022/10/02 07:28:13;;;;;;;0.55;0.55;;;17.60;62.50;;;;;;5069608;28;45234;-75
2022/10/02 07:30:47;;;;;;;0.30;0.30;;;17.60;62.40;;;;;;5069381;28;45292;-76
2022/10/02 07:33:17;;;;;;;0.77;0.40;;;17.60;62.30;;;;;;5069071;28;45466;-75
2022/10/02 07:35:50;;;;;;;0.50;0.50;;;17.70;62.50;;;;;;5069332;28;45296;-76
2022/10/02 07:38:47;;;;;;;0.40;0.40;;;17.70;62.50;;;;;;5069159;28;45219;-76
2022/10/02 07:41:20;;;;;;;0.40;0.40;;;17.70;62.70;;;;;;5068875;28;45372;-75
2022/10/02 07:43:49;;;;;;;0.70;0.70;;;17.70;63.10;;;;;;5068936;28;46329;-75
2022/10/02 07:46:18;;;;;;;0.90;0.50;;;17.70;62.10;;;;;;5068754;28;45363;-76
2022/10/02 07:49:00;;;;;;;0.40;0.40;;;17.70;62.40;;;;;;5068611;28;45185;-76
2022/10/02 07:51:48;;;;;;;0.50;0.50;;;17.70;62.30;;;;;;5068730;28;45283;-75
2022/10/02 07:55:00;;;;;;;1.10;0.60;;;17.80;62.50;;;;;;5068187;28;45775;-76
2022/10/02 07:57:34;;;;;;;0.50;0.50;;;17.80;62.30;;;;;;5068291;28;45324;-75
2022/10/02 08:00:04;;;;;;;0.63;0.63;;;17.80;62.50;;;;;;5068529;28;45283;-75
2022/10/02 08:02:36;;;;;;;1.02;0.60;;;17.80;62.30;;;;;;5067636;28;45187;-76
2022/10/02 08:05:05;;;;;;;0.40;0.40;;;17.80;62.30;;;;;;5067191;28;46632;-76
2022/10/02 08:07:34;;;;;;;0.40;0.40;;;17.80;62.50;;;;;;5067951;28;45226;-75
2022/10/02 08:10:03;;;;;;;0.60;0.60;;;17.90;62.50;;;;;;5068216;28;45376;-76
2022/10/02 08:12:32;;;;;;;0.73;0.50;;;17.90;62.30;;;;;;5067925;28;45293;-76
2022/10/02 08:15:00;;;;;;;0.80;0.50;;;17.90;62.40;;;;;;5066914;28;45722;-76
2022/10/02 08:17:29;;;;;;;0.68;0.63;;;17.90;62.40;;;;;;5067814;28;45279;-75
2022/10/02 08:19:58;;;;;;;0.45;0.45;;;17.90;62.30;;;;;;5067790;28;45198;-76
2022/10/02 08:22:26;;;;;;;0.40;0.40;;;18.00;62.50;;;;;;5067819;28;45475;-75
2022/10/02 08:24:55;;;;;;;0.52;0.30;;;18.00;62.30;;;;;;5067476;28;46419;-75
2022/10/02 08:27:24;;;;;;;0.38;0.38;;;18.00;62.20;;;;;;5067520;28;45236;-75
2022/10/02 08:29:52;;;;;;;1.48;0.40;;;18.00;62.50;;;;;;5067853;28;45308;-75
2022/10/02 08:32:19;;;;;;;0.50;0.50;;;18.10;62.20;;;;;;5068082;28;45271;-75
2022/10/02 08:34:46;;;;;;;0.95;0.40;;;18.10;62.20;;;;;;5067388;28;45289;-76
2022/10/02 08:37:21;;;;;;;0.35;0.35;;;18.10;62.30;;;;;;5067591;28;45482;-76
2022/10/02 08:40:17;;;;;;;0.50;0.50;;;18.10;62.40;;;;;;5067501;28;45504;-76
2022/10/02 08:43:07;;;;;;;0.30;0.30;;;18.10;62.30;;;;;;5055996;28;45241;-75
2022/10/02 08:45:48;;;;;;;0.40;0.40;;;18.10;62.60;;;;;;5069298;28;45303;-76
2022/10/02 08:48:49;;;;;;;0.55;0.55;;;18.10;62.40;;;;;;5067800;28;45385;-76
2022/10/02 08:51:38;;;;;;;0.82;0.50;;;18.10;62.60;;;;;;5069144;28;45237;-75
2022/10/02 08:54:27;;;;;;;0.60;0.60;;;18.10;62.40;;;;;;5068385;28;45269;-76
2022/10/02 08:57:04;;;;;;;0.95;0.50;;;18.10;62.60;;;;;;5067347;28;46393;-75
2022/10/02 08:59:58;;;;;;;0.73;0.50;;;18.10;62.60;;;;;;5067210;28;45267;-76
2022/10/02 09:03:08;;;;;;;0.60;0.50;;;18.20;62.50;;;;;;5067461;28;45128;-75
2022/10/02 09:06:00;;;;;;;0.50;0.50;;;18.20;62.60;;;;;;5067358;28;45432;-76
2022/10/02 09:08:54;;;;;;;0.45;0.40;;;18.20;62.50;;;;;;5066981;28;46725;-75
2022/10/02 09:11:54;;;;;;;0.60;0.50;;;18.20;62.80;;;;;;5066764;28;45266;-75
2022/10/02 09:14:37;;;;;;;0.47;0.38;;;18.20;62.60;;;;;;5022410;28;45376;-75
2022/10/02 09:17:17;;;;;;;0.75;0.50;;;18.20;62.70;;;;;;5067132;28;45434;-76
2022/10/02 09:19:51;;;;;;;0.40;0.40;;;18.20;62.70;;;;;;5066678;28;46385;-76
2022/10/02 09:22:46;;;;;;;0.50;0.50;;;18.30;62.60;;;;;;5066749;28;45335;-75
2022/10/02 09:25:23;;;;;;;0.35;0.28;;;18.30;62.80;;;;;;5065843;28;45308;-76
2022/10/02 09:28:12;;;;;;;0.30;0.30;;;18.30;62.70;;;;;;5066879;28;45499;-75
2022/10/02 09:31:08;;;;;;;0.30;0.30;;;18.30;62.70;;;;;;5053677;28;46755;-75
2022/10/02 09:34:03;;;;;;;0.30;0.30;;;18.30;62.50;;;;;;5011693;28;45444;-75
2022/10/02 09:36:48;;;;;;;0.40;0.40;;;18.30;62.70;;;;;;5047692;28;45323;-76
2022/10/02 09:39:32;;;;;;;1.55;0.50;;;18.30;63.30;;;;;;5066852;28;45471;-75
2022/10/02 09:42:24;;;;;;;0.30;0.30;;;18.30;62.80;;;;;;5066516;28;45790;-76
2022/10/02 09:45:35;;;;;;;0.40;0.40;;;18.30;62.60;;;;;;5066363;28;45292;-76
2022/10/02 09:48:21;;;;;;;0.30;0.30;;;18.30;62.80;;;;;;5066586;28;45243;-76
2022/10/02 09:51:16;;;;;;;0.43;0.40;;;18.40;63.00;;;;;;5066582;28;45429;-76
2022/10/02 09:54:12;;;;;;;0.40;0.40;;;18.40;63.00;;;;;;5066036;28;48008;-76
2022/10/02 09:57:10;;;;;;;0.40;0.40;;;18.40;62.80;;;;;;5066301;28;45347;-76
2022/10/02 10:00:04;;;;;;;0.30;0.30;;;18.40;62.90;;;;;;5066296;28;45227;-75
2022/10/02 10:02:41;;;;;;;1.08;0.30;;;18.40;62.80;;;;;;5066506;28;45480;-76
2022/10/02 10:05:37;;;;;;;0.80;0.35;;;18.40;62.80;;;;;;5065781;28;46709;-76
2022/10/02 10:08:33;;;;;;;0.50;0.50;;;18.40;62.90;;;;;;5050403;28;45610;-76
2022/10/02 10:11:16;;;;;;;0.75;0.30;;;18.40;62.80;;;;;;5064681;28;45322;-76
2022/10/02 10:14:07;;;;;;;0.35;0.35;;;18.40;63.00;;;;;;5066626;28;45288;-76
2022/10/02 10:17:12;;;;;;;0.95;0.30;;;18.50;63.10;;;;;;5065947;28;45228;-77
2022/10/02 10:20:23;;;;;;;1.00;0.40;;;18.50;63.20;;;;;;5065958;28;45407;-76
2022/10/02 10:23:04;;;;;;;0.57;0.40;;;18.50;63.20;;;;;;5058242;28;45293;-76
2022/10/02 10:26:03;;;;;;;0.50;0.50;;;18.50;63.10;;;;;;5065599;28;45547;-74
2022/10/02 10:28:59;;;;;;;1.85;0.30;;;18.50;63.20;;;;;;5065697;28;46990;-75
2022/10/02 10:32:03;;;;;;;0.90;0.35;;;18.50;63.10;;;;;;5065760;28;45341;-75
2022/10/02 10:34:58;;;;;;;0.30;0.30;;;18.50;63.30;;;;;;5065976;28;45297;-76
2022/10/02 10:40:38;;;;;;;0.40;0.30;;;18.50;63.20;;;;;;5049375;28;45132;-76
2022/10/02 10:43:53;;;;;;;0.30;0.30;;;18.50;63.20;;;;;;5049026;28;45329;-75
2022/10/02 10:46:59;;;;;;;0.55;0.30;;;18.50;63.40;;;;;;5058649;28;45462;-74
2022/10/02 10:50:01;;;;;;;0.40;0.40;;;18.50;63.70;;;;;;5066039;28;45301;-75
2022/10/02 10:52:46;;;;;;;0.30;0.30;;;18.50;63.40;;;;;;5052879;28;45219;-76
2022/10/02 10:55:18;;;;;;;0.30;0.30;;;18.50;63.20;;;;;;5061036;28;45186;-76
2022/10/02 10:57:54;;;;;;;0.30;0.30;;;18.50;63.10;;;;;;5049113;28;45290;-76
2022/10/02 11:00:25;;;;;;;0.50;0.32;;;18.50;62.70;;;;;;5049187;28;45254;-75
2022/10/02 11:03:21;;;;;;;0.38;0.28;;;18.50;63.00;;;;;;5054730;28;45296;-75
2022/10/02 11:06:28;;;;;;;0.40;0.35;;;18.60;63.10;;;;;;5056083;28;45353;-76
2022/10/02 11:09:26;;;;;;;0.38;0.38;;;18.60;63.10;;;;;;5048875;28;45278;-76
2022/10/02 11:12:12;;;;;;;0.20;0.20;;;18.60;63.20;;;;;;5048694;28;45203;-76
2022/10/02 11:14:45;;;;;;;2.58;0.45;;;18.60;63.20;;;;;;5048579;28;45656;-77
2022/10/02 11:17:36;;;;;;;0.30;0.30;;;18.60;64.10;;;;;;5054162;28;45224;-76
2022/10/02 11:20:33;;;;;;;0.45;0.45;;;18.60;63.20;;;;;;5061271;28;45235;-77
2022/10/02 11:23:41;;;;;;;0.30;0.30;;;18.70;63.30;;;;;;5048707;28;45356;-76
2022/10/02 11:26:17;;;;;;;0.52;0.28;;;18.70;63.20;;;;;;5012663;28;45411;-76
2022/10/02 11:29:09;;;;;;;0.47;0.40;;;18.70;62.90;;;;;;5048378;28;45193;-76
2022/10/02 11:31:59;;;;;;;0.52;0.40;;;18.80;63.00;;;;;;5048446;28;45194;-76
2022/10/02 11:34:42;;;;;;;0.40;0.40;;;18.80;63.00;;;;;;5048565;28;45381;-76
2022/10/02 11:37:17;;;;;;;0.45;0.45;;;18.80;62.90;;;;;;5048441;28;45206;-75
2022/10/02 11:40:03;;;;;;;0.60;0.40;;;18.90;62.60;;;;;;5068055;28;45246;-77
2022/10/02 11:42:42;;;;;;;0.90;0.40;;;19.00;62.30;;;;;;5068463;28;45252;-77
2022/10/02 11:45:20;;;;;;;1.83;0.40;;;19.00;62.40;;;;;;5065709;28;45388;-76
2022/10/02 11:47:55;;;;;;;0.25;0.25;;;19.00;62.40;;;;;;5068016;28;45237;-77
2022/10/02 11:50:54;;;;;;;0.93;0.38;;;19.10;62.30;;;;;;5067341;28;46129;-76
2022/10/02 11:53:48;;;;;;;1.40;0.38;;;19.30;62.00;;;;;;5068410;28;45325;-77
2022/10/02 11:56:25;;;;;;;0.63;0.50;;;19.40;61.80;;;;;;4986763;28;45250;-77
2022/10/02 11:58:56;;;;;;;3.75;1.50;;;19.40;61.70;;;;;;5047661;28;45438;-76
2022/10/02 12:01:29;;;;;;;12.82;4.75;;;19.40;61.70;;;;;;5047834;28;45258;-77
2022/10/02 12:04:02;;;;;;;28.25;11.27;;;19.50;61.80;;;;;;5047881;28;45254;-77
2022/10/02 12:06:41;;;;;;;39.85;15.52;;;19.50;61.90;;;;;;5047998;28;45274;-76
2022/10/02 12:09:11;;;;;;;47.38;18.23;;;19.50;61.90;;;;;;5047640;28;45458;-78
2022/10/02 12:11:42;;;;;;;49.70;17.30;;;19.50;62.10;;;;;;5047179;28;45230;-77
2022/10/02 12:14:26;;;;;;;50.45;17.98;;;19.50;62.10;;;;;;5047701;28;45369;-76
2022/10/02 12:17:24;;;;;;;47.40;18.27;;;19.50;62.20;;;;;;5053419;28;45460;-76
2022/10/02 12:28:28;;;;;;;39.88;14.85;;;19.60;62.70;;;;;;5052682;28;45336;-76
2022/10/02 12:31:00;;;;;;;42.33;15.00;;;19.60;62.60;;;;;;5054109;28;45480;-76
2022/10/02 12:33:32;;;;;;;36.50;14.02;;;19.60;62.60;;;;;;5066770;28;45270;-78
2022/10/02 12:36:07;;;;;;;32.55;13.35;;;19.60;63.10;;;;;;5067174;28;45340;-78
2022/10/02 12:38:43;;;;;;;29.52;11.40;;;19.60;63.40;;;;;;5067329;28;45396;-78
2022/10/02 12:41:14;;;;;;;24.10;9.02;;;19.60;64.30;;;;;;5066760;28;46620;-76
2022/10/02 12:44:09;;;;;;;22.25;8.38;;;19.60;65.10;;;;;;5066990;28;45226;-79
2022/10/02 12:46:58;;;;;;;17.80;6.72;;;19.60;66.40;;;;;;5035563;28;45342;-76
2022/10/02 12:49:34;;;;;;;18.27;6.57;;;19.70;66.40;;;;;;5038022;28;45517;-75
2022/10/02 12:52:21;;;;;;;16.70;6.55;;;19.80;66.10;;;;;;5057863;28;47293;-78
2022/10/02 12:55:12;;;;;;;14.77;5.50;;;19.80;65.70;;;;;;5057028;28;45371;-77
2022/10/02 12:57:54;;;;;;;11.25;4.63;;;19.80;65.70;;;;;;5057428;28;45278;-76
2022/10/02 13:00:22;;;;;;;8.55;4.10;;;19.90;66.00;;;;;;5055601;28;45408;-75
2022/10/02 13:03:15;;;;;;;9.10;3.60;;;19.90;66.80;;;;;;5064872;28;46686;-76
2022/10/02 13:06:33;;;;;;;7.43;3.08;;;19.90;66.00;;;;;;5050889;28;45200;-74
2022/10/02 13:09:13;;;;;;;4.07;2.55;;;19.90;66.40;;;;;;5060945;28;45425;-76
2022/10/02 13:11:52;;;;;;;5.85;2.72;;;19.90;66.50;;;;;;5065871;28;45380;-77
2022/10/02 13:14:31;;;;;;;4.07;2.20;;;19.90;66.80;;;;;;5065322;28;45459;-77
2022/10/02 13:17:08;;;;;;;5.97;1.90;;;19.90;66.70;;;;;;5063048;28;45363;-76
2022/10/02 13:19:38;;;;;;;4.13;1.92;;;20.00;66.50;;;;;;5065622;28;45304;-77
2022/10/02 13:22:09;;;;;;;3.03;1.50;;;20.10;66.70;;;;;;5065823;28;45380;-77
2022/10/02 13:24:49;;;;;;;3.30;1.60;;;20.20;66.20;;;;;;5066072;28;46622;-77
2022/10/02 13:27:24;;;;;;;2.70;1.33;;;20.30;66.10;;;;;;5062585;28;45468;-76
2022/10/02 13:29:58;;;;;;;2.45;1.38;;;20.40;65.60;;;;;;5065738;28;45253;-74
2022/10/02 13:32:54;;;;;;;4.30;1.40;;;20.40;65.70;;;;;;5065290;28;45347;-76
2022/10/02 13:35:36;;;;;;;2.85;1.50;;;20.40;65.70;;;;;;5052820;28;45440;-78
2022/10/02 13:38:17;;;;;;;3.15;1.35;;;20.30;65.70;;;;;;5066722;28;45332;-76
2022/10/02 13:40:47;;;;;;;2.65;1.40;;;20.30;65.70;;;;;;5066150;28;45475;-79
2022/10/02 13:43:49;;;;;;;4.75;1.40;;;20.30;65.80;;;;;;5066182;28;45329;-78
2022/10/02 13:46:22;;;;;;;3.45;1.42;;;20.30;65.80;;;;;;5008874;28;47238;-77
2022/10/02 13:48:55;;;;;;;2.90;1.25;;;20.30;65.70;;;;;;5061742;28;45251;-78